Time;durP1;ratioP1;P1;durP2;ratioP2;P2;SDS_P1;SDS_P2;PMS_P1;PMS_P2;Temp;Humidity;BMP_temperature;BMP_pressure;BME280_temperature;BME280_humidity;BME280_pressure;Samples;Min_cycle;Max_cycle;Signal;HPM_P1;HPM_P2
2023/10/04 00:01:06;;;;;;;0.10;0.10;;;14.40;99.90;;;;;;5006243;28;20202;-84
2023/10/04 00:03:32;;;;;;;0.35;0.35;;;14.40;99.90;;;;;;5014456;28;20116;-84
2023/10/04 00:05:59;;;;;;;0.10;0.10;;;14.40;99.90;;;;;;5003728;28;20037;-84
2023/10/04 00:08:25;;;;;;;0.10;0.10;;;14.40;99.90;;;;;;5011794;28;20030;-85
2023/10/04 00:10:51;;;;;;;0.10;0.10;;;14.50;99.90;;;;;;5000177;28;20056;-85
2023/10/04 00:13:17;;;;;;;0.10;0.10;;;14.50;99.90;;;;;;5004286;28;20033;-84
2023/10/04 00:15:42;;;;;;;0.10;0.10;;;14.40;99.90;;;;;;5002964;28;20582;-84
2023/10/04 00:18:09;;;;;;;0.75;0.40;;;14.40;99.90;;;;;;5027185;28;20069;-84
2023/10/04 00:20:35;;;;;;;0.10;0.10;;;14.40;99.90;;;;;;5024483;28;20064;-84
2023/10/04 00:23:04;;;;;;;0.55;0.55;;;14.30;99.90;;;;;;5001631;28;20125;-83
2023/10/04 00:25:30;;;;;;;0.10;0.10;;;14.30;99.90;;;;;;4995498;28;20044;-84
2023/10/04 00:27:56;;;;;;;0.20;0.20;;;14.40;99.90;;;;;;5011013;28;20030;-84
2023/10/04 00:30:23;;;;;;;0.17;0.17;;;14.40;99.90;;;;;;5019927;28;20604;-83
2023/10/04 00:32:49;;;;;;;0.22;0.22;;;14.30;99.90;;;;;;5001757;28;20048;-83
2023/10/04 00:35:17;;;;;;;0.52;0.52;;;14.40;99.90;;;;;;5020620;28;20022;-84
2023/10/04 00:37:46;;;;;;;0.10;0.10;;;14.30;99.90;;;;;;5020538;28;20454;-83
2023/10/04 00:40:18;;;;;;;0.10;0.10;;;14.20;99.90;;;;;;5002180;28;20021;-83
2023/10/04 00:42:47;;;;;;;0.10;0.10;;;14.20;99.90;;;;;;5005256;28;20528;-84
2023/10/04 00:45:15;;;;;;;0.10;0.10;;;14.30;99.90;;;;;;5023240;28;20091;-83
2023/10/04 00:47:47;;;;;;;0.20;0.20;;;14.20;99.90;;;;;;5001887;28;20032;-84
2023/10/04 00:50:18;;;;;;;0.10;0.10;;;14.20;99.90;;;;;;5020599;28;20516;-84
2023/10/04 00:52:57;;;;;;;0.10;0.10;;;14.30;99.90;;;;;;5017585;28;20768;-84
2023/10/04 00:55:23;;;;;;;0.10;0.10;;;14.20;99.90;;;;;;4994659;28;20473;-84
2023/10/04 00:57:54;;;;;;;0.50;0.50;;;14.20;99.90;;;;;;5019047;28;20080;-84
2023/10/04 01:00:23;;;;;;;0.57;0.57;;;14.10;99.90;;;;;;5004438;28;20025;-84
2023/10/04 01:02:52;;;;;;;0.82;0.82;;;14.20;99.90;;;;;;4994069;28;20448;-83
2023/10/04 01:05:22;;;;;;;0.52;0.52;;;14.20;99.90;;;;;;5019428;28;20037;-84
2023/10/04 01:07:49;;;;;;;0.10;0.10;;;14.10;99.90;;;;;;5001149;28;20040;-85
2023/10/04 01:10:15;;;;;;;0.45;0.45;;;14.10;99.90;;;;;;5020770;28;20029;-83
2023/10/04 01:12:46;;;;;;;0.10;0.10;;;14.10;99.90;;;;;;5019267;28;20114;-84
2023/10/04 01:17:51;;;;;;;0.10;0.10;;;14.20;99.90;;;;;;5019004;28;20030;-83
2023/10/04 01:20:22;;;;;;;0.20;0.20;;;14.20;99.90;;;;;;5007580;28;20024;-84
2023/10/04 01:22:47;;;;;;;0.10;0.10;;;14.10;99.90;;;;;;5019745;28;20029;-84
2023/10/04 01:25:15;;;;;;;0.10;0.10;;;14.10;99.90;;;;;;4995112;28;20034;-84
2023/10/04 01:27:42;;;;;;;0.15;0.15;;;14.00;99.90;;;;;;5020080;28;20199;-85
2023/10/04 01:30:10;;;;;;;0.13;0.13;;;14.10;99.90;;;;;;5002611;28;20085;-84
2023/10/04 01:32:37;;;;;;;0.10;0.10;;;14.20;99.90;;;;;;5018660;28;20166;-85
2023/10/04 01:35:07;;;;;;;0.10;0.10;;;14.00;99.90;;;;;;4996659;28;20021;-83
2023/10/04 01:37:36;;;;;;;0.10;0.10;;;14.10;99.90;;;;;;5008757;28;20029;-83
2023/10/04 01:40:12;;;;;;;0.13;0.13;;;14.10;99.90;;;;;;5019805;28;20380;-83
2023/10/04 01:42:40;;;;;;;0.95;0.95;;;14.10;99.90;;;;;;4994213;28;20025;-85
2023/10/04 01:45:15;;;;;;;0.28;0.28;;;14.10;99.90;;;;;;5017242;28;20033;-84
2023/10/04 01:47:41;;;;;;;0.10;0.10;;;14.10;99.90;;;;;;5002892;28;20519;-82
2023/10/04 01:50:09;;;;;;;0.10;0.10;;;14.20;99.90;;;;;;5002021;28;20029;-82
2023/10/04 01:52:42;;;;;;;0.20;0.20;;;14.20;99.90;;;;;;5019408;28;21323;-83
2023/10/04 01:55:10;;;;;;;0.30;0.30;;;14.20;99.90;;;;;;5002511;28;20021;-82
2023/10/04 01:57:43;;;;;;;0.15;0.15;;;14.10;99.90;;;;;;5010824;28;20033;-82
2023/10/04 02:00:10;;;;;;;0.10;0.10;;;14.20;99.90;;;;;;5020874;28;20071;-82
2023/10/04 02:02:38;;;;;;;0.10;0.10;;;14.20;99.90;;;;;;5006043;28;20022;-82
2023/10/04 02:05:05;;;;;;;0.10;0.10;;;14.20;99.90;;;;;;5023882;28;20595;-82
2023/10/04 02:07:33;;;;;;;0.38;0.30;;;14.20;99.90;;;;;;5022547;28;20021;-82
2023/10/04 02:09:58;;;;;;;0.25;0.25;;;14.10;99.90;;;;;;5004481;28;20092;-83
2023/10/04 02:12:26;;;;;;;0.10;0.10;;;14.20;99.90;;;;;;5007084;28;20060;-82
2023/10/04 02:14:53;;;;;;;0.10;0.10;;;14.20;99.90;;;;;;5025946;28;20036;-82
2023/10/04 02:17:20;;;;;;;0.20;0.20;;;14.10;99.90;;;;;;5006131;28;20343;-82
2023/10/04 02:19:46;;;;;;;0.20;0.20;;;14.10;99.90;;;;;;5021174;28;20092;-81
2023/10/04 02:22:15;;;;;;;0.17;0.17;;;14.10;99.90;;;;;;5003349;28;20520;-83
2023/10/04 02:24:41;;;;;;;0.10;0.10;;;14.10;99.90;;;;;;5009149;28;20202;-83
2023/10/04 02:27:09;;;;;;;0.10;0.10;;;14.10;99.90;;;;;;5025282;28;20548;-85
2023/10/04 02:29:38;;;;;;;0.10;0.10;;;14.20;99.90;;;;;;5004804;28;20029;-82
2023/10/04 02:32:08;;;;;;;0.15;0.15;;;14.20;99.90;;;;;;5003818;28;20037;-83
2023/10/04 02:34:35;;;;;;;0.20;0.20;;;14.20;99.90;;;;;;5010272;28;20544;-82
2023/10/04 02:37:01;;;;;;;0.10;0.10;;;14.20;99.90;;;;;;5023982;28;20064;-82
2023/10/04 02:39:27;;;;;;;0.17;0.17;;;14.20;99.90;;;;;;5004898;28;20142;-82
2023/10/04 02:41:55;;;;;;;0.10;0.10;;;14.20;99.90;;;;;;5019296;28;20021;-82
2023/10/04 02:44:21;;;;;;;0.10;0.10;;;14.20;99.90;;;;;;4993954;28;20048;-83
2023/10/04 02:46:49;;;;;;;0.10;0.10;;;14.10;99.90;;;;;;5005756;28;20518;-83
2023/10/04 02:49:15;;;;;;;0.10;0.10;;;14.10;99.90;;;;;;5002897;28;20061;-83
2023/10/04 02:51:44;;;;;;;0.10;0.10;;;14.20;99.90;;;;;;5005114;28;20521;-83
2023/10/04 02:54:10;;;;;;;0.10;0.10;;;14.10;99.90;;;;;;5019777;28;20469;-82
2023/10/04 02:56:42;;;;;;;0.10;0.10;;;14.20;99.90;;;;;;5022648;28;20056;-83
2023/10/04 02:59:07;;;;;;;0.98;0.98;;;14.10;99.90;;;;;;5005332;28;20110;-83
2023/10/04 03:01:33;;;;;;;1.13;1.13;;;14.10;99.90;;;;;;5022090;28;20021;-82
2023/10/04 03:03:58;;;;;;;0.10;0.10;;;14.10;99.90;;;;;;5015723;28;20088;-82
2023/10/04 03:06:25;;;;;;;0.20;0.20;;;14.10;99.90;;;;;;5024700;28;20045;-82
2023/10/04 03:08:51;;;;;;;0.10;0.10;;;14.20;99.90;;;;;;5007334;28;20067;-83
2023/10/04 03:11:20;;;;;;;0.13;0.13;;;14.10;99.90;;;;;;5023729;28;20469;-82
2023/10/04 03:13:47;;;;;;;12.88;1.48;;;14.10;99.90;;;;;;5014170;28;20032;-82
2023/10/04 03:16:12;;;;;;;0.20;0.20;;;14.20;99.90;;;;;;5007453;28;20749;-82
2023/10/04 03:18:39;;;;;;;0.20;0.20;;;14.20;99.90;;;;;;5007335;28;20104;-82
2023/10/04 03:23:40;;;;;;;0.10;0.10;;;14.10;99.90;;;;;;5025255;28;20029;-82
2023/10/04 03:26:12;;;;;;;0.10;0.10;;;14.00;99.90;;;;;;5025795;28;20034;-82
2023/10/04 03:28:37;;;;;;;0.20;0.20;;;14.20;99.90;;;;;;5025000;28;20029;-82
2023/10/04 03:31:18;;;;;;;0.10;0.10;;;14.20;99.90;;;;;;5025512;28;20025;-82
2023/10/04 03:33:44;;;;;;;0.20;0.20;;;14.20;99.90;;;;;;5005270;28;20504;-82
2023/10/04 03:36:14;;;;;;;0.25;0.25;;;14.10;99.90;;;;;;5007606;28;20457;-81
2023/10/04 03:38:41;;;;;;;0.10;0.10;;;14.10;99.90;;;;;;5023228;28;20044;-82
2023/10/04 03:41:09;;;;;;;0.20;0.20;;;14.20;99.90;;;;;;5025716;28;20067;-82
2023/10/04 03:43:35;;;;;;;0.20;0.20;;;14.20;99.90;;;;;;5004631;28;20025;-82
2023/10/04 03:46:16;;;;;;;0.20;0.20;;;14.20;99.90;;;;;;5024461;28;20040;-82
2023/10/04 03:48:42;;;;;;;0.30;0.30;;;14.10;99.90;;;;;;5006898;28;20033;-81
2023/10/04 03:51:07;;;;;;;0.10;0.10;;;14.10;99.90;;;;;;5023796;28;20025;-82
2023/10/04 03:53:33;;;;;;;0.10;0.10;;;14.20;99.90;;;;;;5007193;28;20485;-82
2023/10/04 03:55:59;;;;;;;0.20;0.20;;;14.20;99.90;;;;;;5006504;28;20044;-82
2023/10/04 03:58:25;;;;;;;3.00;0.40;;;14.20;99.90;;;;;;5024670;28;20024;-82
2023/10/04 04:00:51;;;;;;;0.30;0.30;;;14.20;99.90;;;;;;5009952;28;20728;-82
2023/10/04 04:03:18;;;;;;;0.20;0.20;;;14.10;99.90;;;;;;5002664;28;20061;-82
2023/10/04 04:05:44;;;;;;;0.10;0.10;;;14.10;99.90;;;;;;5006480;28;20521;-82
2023/10/04 04:08:12;;;;;;;0.10;0.10;;;14.20;99.90;;;;;;5005093;28;20132;-83
2023/10/04 04:10:37;;;;;;;0.10;0.10;;;14.10;99.90;;;;;;5006668;28;20018;-82
2023/10/04 04:13:07;;;;;;;0.17;0.17;;;14.00;99.90;;;;;;5005804;28;20033;-82
2023/10/04 04:15:35;;;;;;;0.30;0.30;;;14.10;99.90;;;;;;5003237;28;20033;-83
2023/10/04 04:18:23;;;;;;;0.30;0.30;;;14.00;99.90;;;;;;5002882;28;20029;-82
2023/10/04 04:20:48;;;;;;;0.70;0.70;;;14.00;99.90;;;;;;5021672;28;20045;-82
2023/10/04 04:23:16;;;;;;;0.35;0.35;;;14.00;99.90;;;;;;4998126;28;20700;-82
2023/10/04 04:25:43;;;;;;;0.20;0.20;;;14.00;99.90;;;;;;5022832;28;20042;-82
2023/10/04 04:28:09;;;;;;;0.47;0.47;;;14.00;99.90;;;;;;4995881;28;20061;-80
2023/10/04 04:30:37;;;;;;;0.20;0.20;;;13.90;99.90;;;;;;5002476;28;20113;-81
2023/10/04 04:33:06;;;;;;;0.40;0.40;;;13.90;99.90;;;;;;5011068;28;20030;-82
2023/10/04 04:38:16;;;;;;;0.10;0.10;;;13.80;99.90;;;;;;5021820;28;20048;-82
2023/10/04 04:40:48;;;;;;;0.20;0.20;;;13.80;99.90;;;;;;5019853;28;20424;-84
2023/10/04 04:43:26;;;;;;;0.20;0.20;;;13.80;99.90;;;;;;5018517;28;20029;-82
2023/10/04 04:45:56;;;;;;;0.10;0.10;;;13.80;99.90;;;;;;5019409;28;20034;-83
2023/10/04 04:48:27;;;;;;;0.17;0.17;;;13.70;99.90;;;;;;5004228;28;20108;-82
2023/10/04 04:50:54;;;;;;;0.10;0.10;;;13.70;99.90;;;;;;5003874;28;20024;-82
2023/10/04 04:53:22;;;;;;;0.20;0.20;;;13.80;99.90;;;;;;5020238;28;20056;-81
2023/10/04 04:55:51;;;;;;;0.50;0.50;;;13.70;99.90;;;;;;5001455;28;20037;-81
2023/10/04 04:58:22;;;;;;;0.10;0.10;;;13.60;99.90;;;;;;5014994;28;20424;-82
2023/10/04 05:00:55;;;;;;;0.20;0.20;;;13.60;99.90;;;;;;4993228;28;20061;-81
2023/10/04 05:03:24;;;;;;;;;;;13.60;99.90;;;;;;5018535;28;20087;-80
2023/10/04 05:05:50;;;;;;;0.10;0.10;;;13.60;99.90;;;;;;5017296;28;19921;-81
2023/10/04 05:08:20;;;;;;;0.20;0.20;;;13.70;99.90;;;;;;5017714;28;20033;-81
2023/10/04 05:10:48;;;;;;;0.20;0.20;;;13.60;99.90;;;;;;5017924;28;20138;-82
2023/10/04 05:13:16;;;;;;;0.43;0.43;;;13.60;99.90;;;;;;5019932;28;20052;-80
2023/10/04 05:15:42;;;;;;;0.20;0.20;;;13.60;99.90;;;;;;4999273;28;20032;-81
2023/10/04 05:18:15;;;;;;;0.20;0.20;;;13.40;99.90;;;;;;4989907;28;20029;-80
2023/10/04 05:20:45;;;;;;;0.30;0.30;;;13.40;99.90;;;;;;5002255;28;20080;-81
2023/10/04 05:23:11;;;;;;;0.40;0.40;;;13.40;99.90;;;;;;4999686;28;20489;-81
2023/10/04 05:25:37;;;;;;;0.20;0.20;;;13.30;99.90;;;;;;5019174;28;20073;-82
2023/10/04 05:28:14;;;;;;;0.20;0.20;;;13.30;99.90;;;;;;5005199;28;20039;-84
2023/10/04 05:30:42;;;;;;;0.25;0.25;;;13.30;99.90;;;;;;5015114;28;20424;-83
2023/10/04 05:33:10;;;;;;;0.20;0.20;;;13.40;99.90;;;;;;4996675;28;20021;-83
2023/10/04 05:35:37;;;;;;;0.20;0.20;;;13.40;99.90;;;;;;5017116;28;20026;-83
2023/10/04 05:38:04;;;;;;;0.50;0.50;;;13.30;99.90;;;;;;4999589;28;20120;-83
2023/10/04 05:40:35;;;;;;;0.35;0.35;;;13.30;99.90;;;;;;4996375;28;20025;-81
2023/10/04 05:43:02;;;;;;;0.30;0.30;;;13.20;99.90;;;;;;5017906;28;20697;-81
2023/10/04 05:45:28;;;;;;;0.30;0.30;;;13.30;99.90;;;;;;5000468;28;20403;-81
2023/10/04 05:47:55;;;;;;;0.50;0.50;;;13.30;99.90;;;;;;4994679;28;20021;-80
2023/10/04 05:50:22;;;;;;;0.82;0.50;;;13.20;99.90;;;;;;5007760;28;20029;-81
2023/10/04 05:52:51;;;;;;;0.50;0.50;;;13.20;99.90;;;;;;5017486;28;20029;-81
2023/10/04 05:55:17;;;;;;;0.25;0.25;;;13.20;99.90;;;;;;5019375;28;20025;-82
2023/10/04 05:57:45;;;;;;;0.20;0.20;;;13.10;99.90;;;;;;4996277;28;20092;-84
2023/10/04 06:00:23;;;;;;;0.20;0.20;;;13.20;99.90;;;;;;5007320;28;20029;-84
2023/10/04 06:03:11;;;;;;;0.20;0.20;;;13.20;99.90;;;;;;5017384;28;20030;-81
2023/10/04 06:05:43;;;;;;;1.58;1.48;;;13.20;99.90;;;;;;4994594;28;20037;-81
2023/10/04 06:08:12;;;;;;;0.30;0.30;;;13.30;99.90;;;;;;5006088;28;20029;-82
2023/10/04 06:10:38;;;;;;;0.45;0.45;;;13.20;99.90;;;;;;5000812;28;20381;-81
2023/10/04 06:13:14;;;;;;;0.20;0.20;;;13.20;99.90;;;;;;4999028;28;20129;-81
2023/10/04 06:15:47;;;;;;;0.20;0.20;;;13.30;99.90;;;;;;5002154;28;20030;-81
2023/10/04 06:18:14;;;;;;;0.25;0.25;;;13.30;99.90;;;;;;5013672;28;20521;-81
2023/10/04 06:20:40;;;;;;;0.20;0.20;;;13.30;99.90;;;;;;5002714;28;20040;-80
2023/10/04 06:23:14;;;;;;;0.20;0.20;;;13.30;99.90;;;;;;5000504;28;20762;-82
2023/10/04 06:25:44;;;;;;;0.68;0.68;;;13.20;99.90;;;;;;5001778;28;20041;-81
2023/10/04 06:28:10;;;;;;;0.20;0.20;;;13.30;99.90;;;;;;5000485;28;20041;-81
2023/10/04 06:30:36;;;;;;;0.20;0.20;;;13.30;99.90;;;;;;5001121;28;20413;-82
2023/10/04 06:33:04;;;;;;;0.20;0.20;;;13.40;99.90;;;;;;5017011;28;20037;-81
2023/10/04 06:35:32;;;;;;;0.20;0.20;;;13.30;99.90;;;;;;5002967;28;20075;-82
2023/10/04 06:38:11;;;;;;;0.13;0.13;;;13.50;99.90;;;;;;5009493;28;20124;-82
2023/10/04 06:40:38;;;;;;;0.20;0.20;;;13.40;99.90;;;;;;4998673;28;20477;-82
2023/10/04 06:43:05;;;;;;;0.10;0.10;;;13.50;99.90;;;;;;5001264;28;20457;-82
2023/10/04 06:45:32;;;;;;;0.30;0.30;;;13.60;99.90;;;;;;5009889;28;20064;-83
2023/10/04 06:48:01;;;;;;;0.20;0.20;;;13.50;99.90;;;;;;4999421;28;20274;-82
2023/10/04 06:50:35;;;;;;;0.47;0.45;;;13.60;99.90;;;;;;4998996;28;20029;-82
2023/10/04 06:53:06;;;;;;;0.13;0.13;;;13.60;99.90;;;;;;4996063;28;20489;-81
2023/10/04 06:55:33;;;;;;;0.65;0.25;;;13.70;99.90;;;;;;4997128;28;20071;-82
2023/10/04 06:58:00;;;;;;;0.20;0.20;;;13.80;99.90;;;;;;4998329;28;20021;-81
2023/10/04 07:00:36;;;;;;;0.30;0.30;;;13.80;99.90;;;;;;5008803;28;20105;-82
2023/10/04 07:03:02;;;;;;;0.30;0.30;;;13.80;99.90;;;;;;5022182;28;20115;-82
2023/10/04 07:05:38;;;;;;;0.17;0.17;;;13.70;99.90;;;;;;5021765;28;20029;-82
2023/10/04 07:08:06;;;;;;;0.15;0.15;;;13.70;99.90;;;;;;5007426;28;20037;-82
2023/10/04 07:10:33;;;;;;;0.20;0.20;;;13.80;99.90;;;;;;5038649;28;20033;-81
2023/10/04 07:13:00;;;;;;;0.20;0.20;;;13.80;99.90;;;;;;5021689;28;20121;-83
2023/10/04 07:15:30;;;;;;;0.15;0.15;;;13.90;99.90;;;;;;5001434;28;20028;-82
2023/10/04 07:17:56;;;;;;;1.10;0.73;;;14.00;99.90;;;;;;5022607;28;20025;-81
2023/10/04 07:20:24;;;;;;;0.20;0.20;;;14.00;99.90;;;;;;5000843;28;20965;-81
2023/10/04 07:22:58;;;;;;;0.15;0.15;;;14.10;99.90;;;;;;5001535;28;20037;-80
2023/10/04 07:25:27;;;;;;;0.20;0.20;;;14.10;99.90;;;;;;4998951;28;20068;-80
2023/10/04 07:27:55;;;;;;;0.20;0.20;;;14.20;99.90;;;;;;5003536;28;20052;-81
2023/10/04 07:30:22;;;;;;;0.20;0.20;;;14.30;99.90;;;;;;5018113;28;20030;-81
2023/10/04 07:32:48;;;;;;;0.43;0.43;;;14.40;99.90;;;;;;5021616;28;20083;-81
2023/10/04 07:35:25;;;;;;;0.13;0.13;;;14.30;99.90;;;;;;5018986;28;20049;-82
2023/10/04 07:37:51;;;;;;;0.47;0.47;;;14.40;99.90;;;;;;5002723;28;20052;-81
2023/10/04 07:40:17;;;;;;;0.40;0.40;;;14.50;99.90;;;;;;5001920;28;20053;-81
2023/10/04 07:42:52;;;;;;;0.10;0.10;;;14.60;99.90;;;;;;5001348;28;20025;-81
2023/10/04 07:45:18;;;;;;;0.30;0.30;;;14.60;99.90;;;;;;5001505;28;20850;-80
2023/10/04 07:47:45;;;;;;;0.68;0.68;;;14.70;99.90;;;;;;5019951;28;20111;-81
2023/10/04 07:50:15;;;;;;;0.10;0.10;;;14.60;99.90;;;;;;5019925;28;20124;-81
2023/10/04 07:52:44;;;;;;;0.10;0.10;;;14.70;99.90;;;;;;5001259;28;20173;-81
2023/10/04 07:55:24;;;;;;;0.20;0.20;;;14.70;99.90;;;;;;5000414;28;20029;-81
2023/10/04 07:57:54;;;;;;;0.22;0.22;;;14.80;99.90;;;;;;5019350;28;20087;-82
2023/10/04 08:00:20;;;;;;;0.20;0.20;;;15.00;99.90;;;;;;5018047;28;20492;-81
2023/10/04 08:02:50;;;;;;;0.17;0.17;;;15.00;99.90;;;;;;5019866;28;20525;-81
2023/10/04 08:05:21;;;;;;;0.17;0.17;;;15.00;99.90;;;;;;5019383;28;20079;-82
2023/10/04 08:07:48;;;;;;;0.10;0.10;;;15.00;99.90;;;;;;5016979;28;20477;-82
2023/10/04 08:10:14;;;;;;;0.20;0.20;;;15.10;99.90;;;;;;5020526;28;20091;-81
2023/10/04 08:12:42;;;;;;;0.20;0.20;;;15.00;99.90;;;;;;5001107;28;20481;-83
2023/10/04 08:15:09;;;;;;;0.20;0.20;;;15.20;99.90;;;;;;5000996;28;20040;-82
2023/10/04 08:17:35;;;;;;;0.50;0.50;;;15.20;99.90;;;;;;4994458;28;20028;-83
2023/10/04 08:20:04;;;;;;;0.20;0.20;;;15.20;99.90;;;;;;5018173;28;20029;-82
2023/10/04 08:22:30;;;;;;;0.32;0.32;;;15.20;99.90;;;;;;5006253;28;20055;-81
2023/10/04 08:24:58;;;;;;;0.30;0.30;;;15.40;99.90;;;;;;4999098;28;20508;-82
2023/10/04 08:27:24;;;;;;;0.35;0.35;;;15.50;99.90;;;;;;5000209;28;20033;-81
2023/10/04 08:29:50;;;;;;;0.20;0.20;;;15.60;99.90;;;;;;5021105;28;20116;-82
2023/10/04 08:32:17;;;;;;;0.20;0.20;;;15.70;99.90;;;;;;5016740;28;20104;-82
2023/10/04 08:34:43;;;;;;;0.50;0.50;;;15.70;99.90;;;;;;5002086;28;20445;-82
2023/10/04 08:37:09;;;;;;;0.30;0.30;;;15.70;99.90;;;;;;5017510;28;20259;-82
2023/10/04 08:39:36;;;;;;;0.88;0.88;;;15.90;99.90;;;;;;5010240;28;20117;-82
2023/10/04 08:42:03;;;;;;;0.50;0.50;;;16.00;99.90;;;;;;5001678;28;20034;-82
2023/10/04 08:44:29;;;;;;;0.65;0.65;;;16.00;99.90;;;;;;5017665;28;20372;-83
2023/10/04 08:46:59;;;;;;;0.30;0.30;;;16.20;99.90;;;;;;5016386;28;20175;-82
2023/10/04 08:49:33;;;;;;;0.30;0.30;;;16.10;99.90;;;;;;5007109;28;20028;-82
2023/10/04 08:52:14;;;;;;;0.20;0.20;;;16.10;99.90;;;;;;5000439;28;20998;-81
2023/10/04 08:54:42;;;;;;;0.43;0.43;;;16.30;99.90;;;;;;4997035;28;20098;-82
2023/10/04 08:57:14;;;;;;;0.20;0.20;;;16.30;99.90;;;;;;5019559;28;20032;-82
2023/10/04 08:59:44;;;;;;;0.20;0.20;;;16.40;99.90;;;;;;5019640;28;20013;-81
2023/10/04 09:02:16;;;;;;;0.40;0.40;;;16.70;99.90;;;;;;5004336;28;20030;-81
2023/10/04 09:04:43;;;;;;;0.68;0.68;;;16.90;99.90;;;;;;5017496;28;20473;-82
2023/10/04 09:07:12;;;;;;;0.80;0.80;;;17.30;99.90;;;;;;5019774;28;20830;-83
2023/10/04 09:09:39;;;;;;;0.40;0.40;;;17.60;99.90;;;;;;4995871;28;20037;-82
2023/10/04 09:12:08;;;;;;;0.40;0.40;;;17.80;99.90;;;;;;5004381;28;20029;-81
2023/10/04 09:14:40;;;;;;;0.50;0.50;;;17.90;99.90;;;;;;5021952;28;20497;-82
2023/10/04 09:17:07;;;;;;;0.32;0.32;;;18.00;99.90;;;;;;5023365;28;20017;-81
2023/10/04 09:19:35;;;;;;;0.52;0.52;;;18.20;99.90;;;;;;5021978;28;20043;-83
2023/10/04 09:22:05;;;;;;;0.70;0.57;;;18.40;99.90;;;;;;5023990;28;20021;-82
2023/10/04 09:24:31;;;;;;;0.55;0.55;;;18.70;99.90;;;;;;5023491;28;20040;-81
2023/10/04 09:26:58;;;;;;;0.40;0.40;;;18.70;99.90;;;;;;5024701;28;20049;-82
2023/10/04 09:29:38;;;;;;;0.30;0.30;;;18.50;99.90;;;;;;5006413;28;20511;-82
2023/10/04 09:32:05;;;;;;;1.50;1.40;;;18.60;99.90;;;;;;5022528;28;20061;-81
2023/10/04 09:34:33;;;;;;;0.40;0.40;;;18.50;99.90;;;;;;5004080;28;20123;-81
2023/10/04 09:36:59;;;;;;;0.47;0.47;;;18.50;99.90;;;;;;4998552;28;20562;-82
2023/10/04 09:39:32;;;;;;;0.65;0.65;;;18.50;99.90;;;;;;5005288;28;20088;-82
2023/10/04 09:42:03;;;;;;;0.40;0.40;;;18.60;99.90;;;;;;5003216;28;20581;-84
2023/10/04 09:44:30;;;;;;;0.40;0.40;;;18.40;99.90;;;;;;5022173;28;20124;-82
2023/10/04 09:47:00;;;;;;;0.40;0.40;;;18.40;99.90;;;;;;5003829;28;20043;-82
2023/10/04 09:49:37;;;;;;;0.30;0.30;;;18.50;99.90;;;;;;5021722;28;20041;-84
2023/10/04 09:52:08;;;;;;;0.57;0.50;;;18.50;99.90;;;;;;5021543;28;20087;-83
2023/10/04 09:54:36;;;;;;;0.30;0.30;;;18.30;99.90;;;;;;5019107;28;20025;-83
2023/10/04 09:57:06;;;;;;;0.45;0.45;;;18.10;99.90;;;;;;5005334;28;20097;-83
2023/10/04 09:59:37;;;;;;;3.20;0.95;;;18.00;99.90;;;;;;5002367;28;20109;-82
2023/10/04 10:02:09;;;;;;;0.30;0.30;;;18.10;99.90;;;;;;5002765;28;20018;-83
2023/10/04 10:04:43;;;;;;;0.40;0.40;;;18.20;99.90;;;;;;5021623;28;20029;-83
2023/10/04 10:07:17;;;;;;;0.45;0.45;;;18.30;99.90;;;;;;4997356;28;20040;-84
2023/10/04 10:10:05;;;;;;;0.20;0.20;;;18.40;99.90;;;;;;4995103;28;20096;-83
2023/10/04 10:12:34;;;;;;;0.20;0.20;;;18.50;99.90;;;;;;5020603;28;20025;-82
2023/10/04 10:15:01;;;;;;;0.20;0.20;;;18.40;99.90;;;;;;4997844;28;20036;-82
2023/10/04 10:17:30;;;;;;;0.32;0.32;;;18.50;99.90;;;;;;5023475;28;20741;-83
2023/10/04 10:19:59;;;;;;;0.35;0.35;;;18.50;99.90;;;;;;5006717;28;20667;-82
2023/10/04 10:22:25;;;;;;;0.32;0.32;;;18.60;99.90;;;;;;5024530;28;20014;-83
2023/10/04 10:24:56;;;;;;;0.57;0.57;;;18.60;99.90;;;;;;5007994;28;20036;-83
2023/10/04 10:27:24;;;;;;;0.50;0.50;;;18.50;99.90;;;;;;5006431;28;20082;-82
2023/10/04 10:29:51;;;;;;;0.30;0.30;;;18.40;99.90;;;;;;5027251;28;20014;-83
2023/10/04 10:32:23;;;;;;;0.40;0.40;;;18.40;99.90;;;;;;5025241;28;20052;-83
2023/10/04 10:35:04;;;;;;;0.70;0.70;;;18.50;99.90;;;;;;5017051;28;20026;-82
2023/10/04 10:37:35;;;;;;;0.30;0.30;;;18.30;99.90;;;;;;5023552;28;20030;-83
2023/10/04 10:40:08;;;;;;;0.30;0.30;;;18.30;99.90;;;;;;5025281;28;20038;-83
2023/10/04 10:42:55;;;;;;;;;;;18.40;99.90;;;;;;5021430;28;20060;-82
2023/10/04 10:45:28;;;;;;;0.22;0.22;;;18.50;99.90;;;;;;5022006;28;19917;-83
2023/10/04 10:47:56;;;;;;;0.60;0.60;;;18.50;99.90;;;;;;5019703;28;20014;-83
2023/10/04 10:50:54;;;;;;;0.60;0.60;;;18.60;99.90;;;;;;5003161;28;20606;-82
2023/10/04 10:53:20;;;;;;;0.40;0.40;;;18.60;99.90;;;;;;5002756;28;20041;-83
2023/10/04 10:55:46;;;;;;;8.15;0.45;;;18.80;99.90;;;;;;5001819;28;20441;-83
2023/10/04 10:58:14;;;;;;;0.30;0.30;;;18.70;99.90;;;;;;5003890;28;20032;-83
2023/10/04 11:00:40;;;;;;;0.77;0.77;;;18.80;99.90;;;;;;5002630;28;20083;-82
2023/10/04 11:03:10;;;;;;;0.40;0.40;;;18.90;99.90;;;;;;5021283;28;20040;-84
2023/10/04 11:05:36;;;;;;;1.00;0.45;;;18.90;99.90;;;;;;5001328;28;20512;-83
2023/10/04 11:08:07;;;;;;;0.68;0.68;;;19.00;99.90;;;;;;5028026;28;20030;-83
2023/10/04 11:10:38;;;;;;;0.95;0.95;;;19.30;99.90;;;;;;5022723;28;20049;-83
2023/10/04 11:13:08;;;;;;;0.63;0.63;;;19.30;99.90;;;;;;5022234;28;20024;-83
2023/10/04 11:15:34;;;;;;;0.60;0.60;;;19.50;99.90;;;;;;5023314;28;20026;-83
2023/10/04 11:18:00;;;;;;;0.38;0.38;;;19.50;99.90;;;;;;5003804;28;20104;-83
2023/10/04 11:20:28;;;;;;;1.00;1.00;;;19.60;99.90;;;;;;5003562;28;20100;-83
2023/10/04 11:22:55;;;;;;;0.43;0.43;;;19.50;99.90;;;;;;5010314;28;20049;-83
2023/10/04 11:25:21;;;;;;;0.50;0.50;;;19.50;99.90;;;;;;5020393;28;20039;-83
2023/10/04 11:27:50;;;;;;;1.63;0.90;;;19.40;99.90;;;;;;5021563;28;20100;-83
2023/10/04 11:30:17;;;;;;;0.50;0.50;;;19.50;99.90;;;;;;5019292;28;20478;-84
2023/10/04 11:32:46;;;;;;;0.40;0.40;;;19.70;99.90;;;;;;5002482;28;20029;-83
2023/10/04 11:35:15;;;;;;;0.32;0.32;;;19.60;99.90;;;;;;5022431;28;20029;-83
2023/10/04 11:37:50;;;;;;;0.38;0.38;;;19.40;99.90;;;;;;5018672;28;20465;-83
2023/10/04 11:40:23;;;;;;;0.60;0.60;;;19.40;99.90;;;;;;5022564;28;20197;-82
2023/10/04 11:43:00;;;;;;;0.55;0.55;;;19.40;99.90;;;;;;5000903;28;20378;-82
2023/10/04 11:45:29;;;;;;;0.82;0.82;;;19.40;99.90;;;;;;5004830;28;20049;-83
2023/10/04 11:48:08;;;;;;;0.50;0.50;;;19.60;99.90;;;;;;5018436;28;20678;-83
2023/10/04 11:50:51;;;;;;;1.02;1.02;;;19.70;99.90;;;;;;5022011;28;20430;-82
2023/10/04 11:53:49;;;;;;;0.50;0.50;;;19.80;99.90;;;;;;5002785;28;20025;-83
2023/10/04 11:56:15;;;;;;;4.65;0.95;;;19.70;99.90;;;;;;5001796;28;20128;-82
2023/10/04 11:58:49;;;;;;;0.70;0.70;;;19.70;99.90;;;;;;5019792;28;20568;-84
2023/10/04 12:01:16;;;;;;;0.40;0.40;;;19.80;99.90;;;;;;5002010;28;20099;-82
2023/10/04 12:03:41;;;;;;;1.10;0.50;;;19.90;99.90;;;;;;4997370;28;20037;-83
2023/10/04 12:06:07;;;;;;;1.23;0.63;;;19.90;99.90;;;;;;5004021;28;20500;-83
2023/10/04 12:08:35;;;;;;;0.85;0.85;;;19.90;99.90;;;;;;5003684;28;20075;-82
2023/10/04 12:11:01;;;;;;;1.80;1.70;;;19.80;99.90;;;;;;5001853;28;20044;-83
2023/10/04 12:13:27;;;;;;;0.68;0.32;;;19.70;99.90;;;;;;5018832;28;20760;-83
2023/10/04 12:15:55;;;;;;;0.68;0.68;;;19.80;99.90;;;;;;5021014;28;20036;-83
2023/10/04 12:18:21;;;;;;;0.73;0.73;;;19.80;99.90;;;;;;5003757;28;20030;-82
2023/10/04 12:20:48;;;;;;;0.60;0.60;;;19.80;99.90;;;;;;5021459;28;20040;-83
2023/10/04 12:23:14;;;;;;;0.47;0.47;;;19.70;99.90;;;;;;5001669;28;20025;-84
2023/10/04 12:25:43;;;;;;;2.20;0.47;;;19.60;99.90;;;;;;5020892;28;20813;-83
2023/10/04 12:28:09;;;;;;;0.85;0.47;;;19.80;99.90;;;;;;5020502;28;20366;-83
2023/10/04 12:30:36;;;;;;;1.63;0.52;;;19.90;99.90;;;;;;5002106;28;20048;-83
2023/10/04 12:33:02;;;;;;;0.47;0.47;;;19.90;99.90;;;;;;5021730;28;20074;-83
2023/10/04 12:35:28;;;;;;;0.30;0.30;;;19.70;99.90;;;;;;5017867;28;20032;-83
2023/10/04 12:37:54;;;;;;;0.93;0.50;;;19.70;99.90;;;;;;5001580;28;20022;-83
2023/10/04 12:40:26;;;;;;;0.63;0.60;;;19.80;99.90;;;;;;4999715;28;20105;-84
2023/10/04 12:42:52;;;;;;;0.55;0.55;;;19.80;99.90;;;;;;4994205;28;20412;-83
2023/10/04 12:45:21;;;;;;;0.40;0.40;;;19.80;99.90;;;;;;5002024;28;20093;-83
2023/10/04 12:47:47;;;;;;;1.17;0.57;;;19.70;99.90;;;;;;5018980;28;20091;-83
2023/10/04 12:50:15;;;;;;;0.40;0.40;;;19.60;99.90;;;;;;5007975;28;20245;-84
2023/10/04 12:52:45;;;;;;;0.50;0.50;;;19.50;99.90;;;;;;5020770;28;20030;-82
2023/10/04 12:55:11;;;;;;;0.75;0.75;;;19.50;99.90;;;;;;5000349;28;20041;-83
2023/10/04 12:57:40;;;;;;;1.20;0.77;;;19.50;99.90;;;;;;5022875;28;20989;-82
2023/10/04 13:00:18;;;;;;;0.38;0.38;;;19.40;99.90;;;;;;5018595;28;20060;-81
2023/10/04 13:02:44;;;;;;;0.65;0.65;;;19.30;99.90;;;;;;5020707;28;20576;-82
2023/10/04 13:05:11;;;;;;;2.65;0.60;;;19.40;99.90;;;;;;4999329;28;20395;-82